Time;durP1;ratioP1;P1;durP2;ratioP2;P2;SDS_P1;SDS_P2;PMS_P1;PMS_P2;Temp;Humidity;BMP_temperature;BMP_pressure;BME280_temperature;BME280_humidity;BME280_pressure;Samples;Min_cycle;Max_cycle;Signal;HPM_P1;HPM_P2
2023/05/02 00:00:02;;;;;;;6.63;3.90;;;;;;;13.04;73.47;100840.03;4985696;28;20295;-72
2023/05/02 00:02:29;;;;;;;4.33;3.87;;;;;;;12.99;73.92;100840.34;4988374;28;20211;-72
2023/05/02 00:04:56;;;;;;;6.03;4.30;;;;;;;12.97;73.64;100838.72;4983491;28;20238;-70
2023/05/02 00:07:22;;;;;;;6.33;3.90;;;;;;;12.93;73.73;100846.09;4985672;28;20207;-71
2023/05/02 00:09:49;;;;;;;4.57;3.93;;;;;;;12.89;73.38;100847.31;4987262;28;20570;-70
2023/05/02 00:12:15;;;;;;;6.57;4.33;;;;;;;12.86;73.32;100839.50;4985853;28;20225;-72
2023/05/02 00:14:42;;;;;;;5.23;3.90;;;;;;;12.84;73.46;100839.59;4989185;28;20717;-71
2023/05/02 00:17:17;;;;;;;6.50;3.87;;;;;;;12.81;73.60;100841.63;4989223;28;20704;-72
2023/05/02 00:19:43;;;;;;;5.50;3.67;;;;;;;12.79;73.59;100835.53;4986034;28;20211;-71
2023/05/02 00:22:10;;;;;;;5.43;3.80;;;;;;;12.79;73.80;100844.41;4987031;28;20620;-71
2023/05/02 00:24:36;;;;;;;4.17;3.13;;;;;;;12.78;73.64;100849.84;4992076;28;20473;-71
2023/05/02 00:27:03;;;;;;;3.90;3.40;;;;;;;12.75;73.22;100845.56;4994100;28;20628;-71
2023/05/02 00:29:30;;;;;;;4.07;3.57;;;;;;;12.73;73.34;100846.63;4995419;28;20375;-72
2023/05/02 00:31:56;;;;;;;4.77;3.27;;;;;;;12.69;73.22;100848.69;4990248;28;20712;-68
2023/05/02 00:34:24;;;;;;;5.90;3.80;;;;;;;12.67;73.03;100847.06;4992721;28;20419;-71
2023/05/02 00:36:51;;;;;;;6.43;4.20;;;;;;;12.64;72.69;100852.63;4982674;28;20223;-72
2023/05/02 00:39:17;;;;;;;4.73;3.80;;;;;;;12.63;73.30;100850.91;4990248;28;20387;-70
2023/05/02 00:41:43;;;;;;;4.20;3.63;;;;;;;12.63;73.26;100859.78;4992018;28;20227;-71
2023/05/02 00:44:10;;;;;;;3.43;3.13;;;;;;;12.63;73.45;100851.78;4989522;28;20223;-71
2023/05/02 00:46:37;;;;;;;5.33;3.70;;;;;;;12.62;73.46;100855.41;4983907;28;20208;-69
2023/05/02 00:49:03;;;;;;;4.10;3.50;;;;;;;12.61;73.62;100853.69;4990440;28;20207;-71
2023/05/02 00:51:33;;;;;;;4.93;3.87;;;;;;;12.61;73.91;100850.16;4996204;28;20207;-71
2023/05/02 00:54:00;;;;;;;6.63;4.37;;;;;;;12.59;73.94;100855.59;4984872;28;20367;-71
2023/05/02 00:56:27;;;;;;;6.03;3.83;;;;;;;12.59;74.22;100857.41;4996011;28;20618;-70
2023/05/02 00:58:54;;;;;;;5.23;3.77;;;;;;;12.57;74.46;100857.53;4986811;28;20211;-71
2023/05/02 01:01:40;;;;;;;4.70;3.50;;;;;;;12.55;74.33;100848.75;4986329;28;21301;-71
2023/05/02 01:04:18;;;;;;;5.00;3.63;;;;;;;12.55;74.88;100853.25;4987493;28;20262;-71
2023/05/02 01:06:59;;;;;;;4.23;3.50;;;;;;;12.51;74.54;100853.47;4985487;28;20203;-71
2023/05/02 01:09:39;;;;;;;5.13;3.90;;;;;;;12.50;74.84;100853.56;4989081;28;20245;-71
2023/05/02 01:12:13;;;;;;;4.30;3.90;;;;;;;12.48;75.16;100856.34;4987523;28;20528;-71
2023/05/02 01:14:45;;;;;;;4.50;3.27;;;;;;;12.47;75.05;100854.63;4992424;28;20254;-71
2023/05/02 01:17:14;;;;;;;6.50;4.10;;;;;;;12.46;75.16;100857.41;4992453;28;20227;-71
2023/05/02 01:19:43;;;;;;;6.33;4.30;;;;;;;12.44;75.23;100849.50;4995175;28;20203;-71
2023/05/02 01:22:13;;;;;;;5.70;4.00;;;;;;;12.42;75.26;100853.22;4988222;28;20236;-71
2023/05/02 01:24:46;;;;;;;6.67;3.93;;;;;;;12.41;75.45;100860.38;4991736;28;20230;-70
2023/05/02 01:27:21;;;;;;;8.10;3.97;;;;;;;12.41;75.89;100857.72;4992459;28;20205;-71
2023/05/02 01:29:51;;;;;;;6.77;4.60;;;;;;;12.42;76.09;100864.78;4988843;28;20212;-71
2023/05/02 01:32:20;;;;;;;9.57;4.80;;;;;;;12.42;76.36;100861.25;4995212;28;20217;-72
2023/05/02 01:34:48;;;;;;;5.43;4.70;;;;;;;12.41;77.08;100859.53;4989717;28;20227;-71
2023/05/02 01:37:17;;;;;;;5.53;5.00;;;;;;;12.41;76.91;100859.53;4992952;28;20651;-70
2023/05/02 01:39:44;;;;;;;7.53;5.43;;;;;;;12.40;77.87;100866.69;4984824;28;20327;-70
2023/05/02 01:42:12;;;;;;;6.03;5.10;;;;;;;12.39;78.11;100870.31;4987624;28;20203;-70
2023/05/02 01:44:42;;;;;;;6.40;4.97;;;;;;;12.36;78.52;100870.50;4989301;28;20258;-70
2023/05/02 01:47:10;;;;;;;7.27;5.10;;;;;;;12.34;78.53;100871.59;4992468;28;20634;-71
2023/05/02 01:49:38;;;;;;;7.00;5.47;;;;;;;12.30;78.80;100881.63;4992105;28;20243;-72
2023/05/02 01:52:10;;;;;;;6.83;5.57;;;;;;;12.27;79.35;100891.66;4993093;28;20218;-71
2023/05/02 01:54:37;;;;;;;9.70;5.77;;;;;;;12.23;79.64;100891.00;4987220;28;20694;-70
2023/05/02 01:57:06;;;;;;;9.67;5.90;;;;;;;12.21;79.96;100892.91;4992172;28;20230;-70
2023/05/02 01:59:35;;;;;;;7.53;5.93;;;;;;;12.18;80.44;100889.59;4993674;28;20220;-72
2023/05/02 02:02:02;;;;;;;10.97;7.37;;;;;;;12.13;80.56;100890.75;4989565;28;20211;-70
2023/05/02 02:04:31;;;;;;;10.03;7.40;;;;;;;12.10;80.56;100898.09;4988149;28;20234;-71
2023/05/02 02:07:03;;;;;;;15.03;8.37;;;;;;;12.06;80.16;100899.25;4990098;28;20215;-71
2023/05/02 02:09:30;;;;;;;12.63;9.43;;;;;;;12.01;79.67;100896.03;4991827;28;20229;-69
2023/05/02 02:12:03;;;;;;;12.30;9.30;;;;;;;11.96;79.47;100899.03;4987433;28;20591;-71
2023/05/02 02:14:34;;;;;;;12.17;8.67;;;;;;;11.94;79.27;100900.06;4986442;28;20681;-72
2023/05/02 02:17:05;;;;;;;10.70;9.30;;;;;;;11.93;79.09;100898.34;4990261;28;20234;-71
2023/05/02 02:19:33;;;;;;;10.63;8.57;;;;;;;11.92;79.33;100901.97;4988777;28;20207;-71
2023/05/02 02:22:00;;;;;;;13.60;9.80;;;;;;;11.91;79.32;100901.13;4992047;28;20221;-72
2023/05/02 02:24:27;;;;;;;13.53;9.80;;;;;;;11.89;79.57;100908.38;4987608;28;20250;-72
2023/05/02 02:26:54;;;;;;;12.73;9.90;;;;;;;11.91;79.62;100903.78;4994691;28;20200;-72
2023/05/02 02:29:20;;;;;;;15.80;9.73;;;;;;;11.89;79.69;100915.50;4992159;28;20202;-71
2023/05/02 02:31:47;;;;;;;11.73;9.83;;;;;;;11.87;79.87;100915.63;4995550;28;20206;-72
2023/05/02 02:34:13;;;;;;;12.17;9.43;;;;;;;11.88;79.99;100924.47;4990959;28;20234;-72
2023/05/02 02:36:45;;;;;;;13.80;10.13;;;;;;;11.89;80.40;100923.53;4990724;28;20243;-72
2023/05/02 02:39:20;;;;;;;12.70;10.13;;;;;;;11.87;80.24;100928.97;4992254;28;20428;-72
2023/05/02 02:41:55;;;;;;;13.60;9.77;;;;;;;11.87;80.50;100930.78;4989782;28;20209;-72
2023/05/02 02:44:32;;;;;;;16.30;10.97;;;;;;;11.86;80.90;100929.06;4993315;28;20218;-72
2023/05/02 02:47:04;;;;;;;14.70;11.23;;;;;;;11.83;81.22;100928.28;4993343;28;20210;-72
2023/05/02 02:49:38;;;;;;;16.00;11.40;;;;;;;11.82;81.67;100923.91;4998221;28;20214;-71
2023/05/02 02:52:10;;;;;;;21.27;11.37;;;;;;;11.81;82.10;100924.03;4993573;28;20212;-72
2023/05/02 02:54:45;;;;;;;17.10;11.90;;;;;;;11.79;82.51;100932.13;4989726;28;20229;-71
2023/05/02 02:57:17;;;;;;;16.50;12.13;;;;;;;11.77;82.80;100928.69;4994149;28;20222;-72
2023/05/02 02:59:51;;;;;;;15.23;12.60;;;;;;;11.76;82.83;100940.34;4992757;28;20241;-71
2023/05/02 03:02:19;;;;;;;16.37;12.73;;;;;;;11.75;83.52;100943.06;4986598;28;20228;-72
2023/05/02 03:04:47;;;;;;;19.00;12.93;;;;;;;11.73;83.81;100942.31;4991800;28;20227;-71
2023/05/02 03:07:15;;;;;;;17.20;12.80;;;;;;;11.73;83.96;100947.63;4991135;28;20212;-70
2023/05/02 03:09:42;;;;;;;23.13;14.07;;;;;;;11.71;84.50;100953.06;4989795;28;20208;-72
2023/05/02 03:12:08;;;;;;;18.37;14.43;;;;;;;11.71;84.45;100957.53;4987447;28;20210;-71
2023/05/02 03:14:35;;;;;;;19.20;13.37;;;;;;;11.68;84.77;100953.25;4991792;28;20237;-73
2023/05/02 03:17:02;;;;;;;18.20;14.23;;;;;;;11.67;84.73;100962.22;4995278;28;20236;-71
2023/05/02 03:19:29;;;;;;;18.97;13.10;;;;;;;11.66;85.10;100964.97;4989371;28;20218;-71
2023/05/02 03:21:55;;;;;;;19.83;14.87;;;;;;;11.63;85.32;100979.38;4994846;28;20244;-71
2023/05/02 03:24:23;;;;;;;22.77;15.80;;;;;;;11.61;85.45;100983.09;4994943;28;20220;-72
2023/05/02 03:26:49;;;;;;;20.90;15.37;;;;;;;11.59;85.92;100983.19;4994074;28;20254;-71
2023/05/02 03:29:16;;;;;;;21.93;15.43;;;;;;;11.57;85.91;100979.75;4995810;28;20216;-71
2023/05/02 03:31:42;;;;;;;19.43;14.90;;;;;;;11.56;86.13;100987.84;4995605;28;20206;-71
2023/05/02 03:34:09;;;;;;;23.17;16.03;;;;;;;11.55;86.06;100984.31;4994308;28;20243;-71
2023/05/02 03:36:36;;;;;;;21.73;15.20;;;;;;;11.51;86.76;100985.47;4994683;28;20236;-69
2023/05/02 03:39:02;;;;;;;24.33;15.73;;;;;;;11.47;87.29;100991.94;4992934;28;20228;-71
2023/05/02 03:41:30;;;;;;;20.73;15.37;;;;;;;11.44;87.39;100985.00;4997843;28;20232;-69
2023/05/02 03:43:57;;;;;;;21.20;14.40;;;;;;;11.44;87.24;100989.47;4991808;28;20846;-71
2023/05/02 03:46:23;;;;;;;21.97;14.70;;;;;;;11.43;87.54;100993.09;4994089;28;20727;-70
2023/05/02 03:48:50;;;;;;;20.87;14.73;;;;;;;11.40;87.77;100987.94;4985804;28;20201;-71
2023/05/02 03:51:16;;;;;;;21.37;15.10;;;;;;;11.40;88.10;100991.47;5001203;22;20231;-81
2023/05/02 03:53:43;;;;;;;22.30;14.63;;;;;;;11.39;88.09;100992.41;5008025;28;20201;-81
2023/05/02 03:56:09;;;;;;;19.73;13.87;;;;;;;11.39;88.26;100999.56;5010334;28;20218;-82
2023/05/02 03:58:37;;;;;;;19.10;13.70;;;;;;;11.38;88.07;100997.84;4993473;28;20750;-82
2023/05/02 04:01:04;;;;;;;19.87;13.93;;;;;;;11.38;88.39;100997.84;4985876;28;20212;-82
2023/05/02 04:03:31;;;;;;;21.00;13.97;;;;;;;11.38;88.36;101000.50;4990347;28;20570;-81
2023/05/02 04:05:57;;;;;;;21.57;14.80;;;;;;;11.38;88.61;101005.84;4988482;28;20223;-81
2023/05/02 04:08:24;;;;;;;18.23;14.37;;;;;;;11.37;88.67;101002.31;4986784;28;20737;-82
2023/05/02 04:10:51;;;;;;;20.40;14.13;;;;;;;11.37;88.87;101007.66;4992860;28;20218;-81
2023/05/02 04:13:18;;;;;;;20.80;14.17;;;;;;;11.38;88.96;101009.38;4988985;28;20269;-81
2023/05/02 04:15:46;;;;;;;20.97;14.37;;;;;;;11.38;89.30;101012.03;4990301;28;20200;-81
2023/05/02 04:18:12;;;;;;;17.40;12.47;;;;;;;11.39;89.50;101021.75;4989556;28;20806;-81
2023/05/02 04:20:39;;;;;;;18.70;13.47;;;;;;;11.38;89.56;101012.03;4991107;28;20682;-82
2023/05/02 04:23:05;;;;;;;22.43;14.47;;;;;;;11.40;89.72;101026.13;4991562;28;20294;-82
2023/05/02 04:25:32;;;;;;;21.03;14.00;;;;;;;11.39;89.74;101028.91;4987087;28;20208;-82
2023/05/02 04:27:58;;;;;;;19.07;14.50;;;;;;;11.39;89.84;101026.22;4982085;28;20232;-81
2023/05/02 04:30:25;;;;;;;19.93;14.73;;;;;;;11.39;90.09;101031.56;4992319;28;20214;-84
2023/05/02 04:32:53;;;;;;;22.13;14.13;;;;;;;11.39;90.28;101034.22;4992479;28;20224;-83
2023/05/02 04:35:19;;;;;;;20.73;14.50;;;;;;;11.39;90.54;101034.22;4988736;28;20208;-83
2023/05/02 04:37:46;;;;;;;20.70;13.83;;;;;;;11.39;90.31;101036.91;4986143;28;20817;-83
2023/05/02 04:40:13;;;;;;;20.67;13.60;;;;;;;11.37;90.82;101044.13;4991945;28;20639;-82
2023/05/02 04:42:40;;;;;;;17.60;12.00;;;;;;;11.35;91.13;101060.22;4990031;28;20212;-83
2023/05/02 04:45:07;;;;;;;22.37;14.13;;;;;;;11.34;91.21;101046.97;4991515;28;20663;-83
2023/05/02 04:47:34;;;;;;;22.27;14.50;;;;;;;11.33;91.32;101062.13;4988927;28;20221;-84
2023/05/02 04:50:02;;;;;;;25.13;15.07;;;;;;;11.31;91.64;101052.47;4984552;28;20205;-82
2023/05/02 04:52:29;;;;;;;23.40;15.30;;;;;;;11.29;91.99;101057.91;4985384;28;20224;-82
2023/05/02 04:54:56;;;;;;;21.77;14.23;;;;;;;11.29;92.11;101073.91;4994150;28;20314;-81
2023/05/02 04:57:22;;;;;;;23.43;15.60;;;;;;;11.29;92.37;101068.56;4990103;28;20610;-83
2023/05/02 04:59:49;;;;;;;22.80;15.40;;;;;;;11.29;92.39;101083.72;4994022;28;20679;-82
2023/05/02 05:02:15;;;;;;;25.27;14.57;;;;;;;11.31;92.57;101087.16;4982969;28;20214;-81
2023/05/02 05:04:42;;;;;;;23.73;15.33;;;;;;;11.31;92.83;101087.16;4991457;28;20770;-83
2023/05/02 05:07:10;;;;;;;25.87;15.77;;;;;;;11.30;93.27;101077.44;4989891;28;20278;-84
2023/05/02 05:09:36;;;;;;;24.43;15.80;;;;;;;11.30;93.22;101088.97;4987057;28;20252;-83
2023/05/02 05:12:03;;;;;;;24.70;15.70;;;;;;;11.30;93.17;101096.09;4977223;28;20209;-83
2023/05/02 05:14:30;;;;;;;24.43;15.43;;;;;;;11.30;93.89;101091.63;4993084;28;20204;-82
2023/05/02 05:16:58;;;;;;;23.67;14.50;;;;;;;11.28;94.23;101088.22;4987062;28;20243;-82
2023/05/02 05:19:25;;;;;;;23.23;14.30;;;;;;;11.29;94.09;101095.25;4988971;28;20676;-83
2023/05/02 05:21:51;;;;;;;22.40;14.33;;;;;;;11.30;94.12;101096.97;4987028;28;20213;-82
2023/05/02 05:24:19;;;;;;;22.60;14.80;;;;;;;11.31;94.48;101109.34;4983720;28;20662;-82
2023/05/02 05:26:45;;;;;;;19.73;13.60;;;;;;;11.31;94.60;101104.00;4991091;28;20572;-82
2023/05/02 05:29:12;;;;;;;20.60;13.53;;;;;;;11.33;94.90;101110.13;4989627;28;20236;-82
2023/05/02 05:31:38;;;;;;;19.90;12.80;;;;;;;11.36;94.90;101114.41;4994009;28;20231;-82
2023/05/02 05:34:05;;;;;;;20.10;13.63;;;;;;;11.38;95.30;101118.72;4986539;28;20643;-83
2023/05/02 05:36:32;;;;;;;18.43;11.77;;;;;;;11.39;95.17;101124.91;4988720;28;20209;-82
2023/05/02 05:38:58;;;;;;;18.67;12.67;;;;;;;11.38;95.11;101123.19;4986656;28;20231;-83
2023/05/02 05:41:26;;;;;;;20.20;12.23;;;;;;;11.37;95.51;101133.00;4989013;28;20337;-82
2023/05/02 05:43:53;;;;;;;17.10;11.50;;;;;;;11.34;96.03;101132.31;4990552;28;20206;-84
2023/05/02 05:46:19;;;;;;;14.83;10.97;;;;;;;11.32;96.08;101132.41;4988653;28;20213;-82
2023/05/02 05:48:46;;;;;;;17.17;10.60;;;;;;;11.31;95.91;101143.16;4987953;28;20225;-83
2023/05/02 05:51:12;;;;;;;16.13;10.47;;;;;;;11.30;96.07;101144.97;4982453;28;20220;-84
2023/05/02 05:53:39;;;;;;;14.53;9.27;;;;;;;11.31;96.41;101161.81;4985456;28;20802;-83
2023/05/02 05:56:09;;;;;;;14.27;10.20;;;;;;;11.28;96.38;101156.69;4977239;28;20567;-82
2023/05/02 05:58:37;;;;;;;11.63;7.63;;;;;;;11.26;96.75;101169.25;4981216;28;20223;-82
2023/05/02 06:01:04;;;;;;;7.17;5.00;;;;;;;11.19;95.73;101178.53;4987169;28;20691;-81
2023/05/02 06:03:31;;;;;;;5.47;4.10;;;;;;;11.07;95.76;101180.97;4991397;28;20211;-82
2023/05/02 06:05:57;;;;;;;5.40;4.03;;;;;;;10.98;95.55;101186.78;4988332;28;20213;-81
2023/05/02 06:08:24;;;;;;;3.50;3.03;;;;;;;10.90;95.33;101196.19;4984668;28;20220;-81
2023/05/02 06:10:50;;;;;;;6.50;3.17;;;;;;;10.83;95.23;101193.00;4985736;28;20216;-81
2023/05/02 06:13:16;;;;;;;3.47;2.10;;;;;;;10.71;94.72;101199.00;4991102;28;20214;-81
2023/05/02 06:15:44;;;;;;;3.67;2.23;;;;;;;10.62;94.69;101220.81;4986197;28;20212;-81
2023/05/02 06:18:11;;;;;;;2.47;2.03;;;;;;;10.56;94.76;101213.19;4988821;28;20323;-82
2023/05/02 06:20:37;;;;;;;2.97;2.03;;;;;;;10.49;95.07;101215.28;4981673;28;20207;-81
2023/05/02 06:23:04;;;;;;;5.30;2.47;;;;;;;10.46;95.18;101227.91;4986839;28;20215;-81
2023/05/02 06:25:32;;;;;;;3.60;2.30;;;;;;;10.41;94.93;101244.13;4986042;28;20651;-81
2023/05/02 06:27:59;;;;;;;3.53;2.47;;;;;;;10.34;94.57;101254.25;4986209;28;20234;-81
2023/05/02 06:30:25;;;;;;;2.63;2.00;;;;;;;10.29;94.68;101255.44;4985182;28;20204;-81
2023/05/02 06:32:53;;;;;;;3.00;1.90;;;;;;;10.22;94.56;101262.00;4990178;28;20239;-82
2023/05/02 06:35:20;;;;;;;2.93;1.87;;;;;;;10.17;94.63;101266.69;4985323;28;20210;-80
2023/05/02 06:37:46;;;;;;;4.70;2.03;;;;;;;10.13;94.82;101276.63;4987200;28;20231;-81
2023/05/02 06:40:13;;;;;;;3.60;1.80;;;;;;;10.10;93.97;101271.47;4985189;28;20219;-81
2023/05/02 06:42:39;;;;;;;4.10;2.60;;;;;;;10.07;94.19;101283.13;4981314;28;20200;-81
2023/05/02 06:45:07;;;;;;;6.90;2.53;;;;;;;10.07;94.67;101287.59;4985390;28;20215;-81
2023/05/02 06:47:33;;;;;;;6.17;2.70;;;;;;;10.08;94.14;101292.84;4990501;28;20234;-81
2023/05/02 06:50:02;;;;;;;4.07;2.17;;;;;;;10.07;94.18;101303.56;4990089;28;20215;-81
2023/05/02 06:52:28;;;;;;;4.37;2.40;;;;;;;10.05;94.65;101305.44;4987802;28;20685;-81
2023/05/02 06:54:55;;;;;;;4.23;2.50;;;;;;;10.03;94.58;101312.66;4984663;28;20220;-82
2023/05/02 06:57:21;;;;;;;4.00;2.73;;;;;;;10.00;93.89;101319.00;4988519;28;20243;-81
2023/05/02 06:59:48;;;;;;;5.97;2.67;;;;;;;9.99;93.62;101322.59;4984746;28;20211;-81
2023/05/02 07:02:14;;;;;;;4.50;3.00;;;;;;;9.96;93.28;101325.41;4986352;28;20212;-81
2023/05/02 07:04:40;;;;;;;5.23;2.93;;;;;;;9.95;93.28;101328.13;4990221;28;20211;-82
2023/05/02 07:07:08;;;;;;;7.27;3.23;;;;;;;9.95;92.68;101328.13;4991089;28;20239;-81
2023/05/02 07:09:35;;;;;;;7.83;3.40;;;;;;;9.92;92.42;101328.28;4986378;28;20214;-81
2023/05/02 07:12:02;;;;;;;9.47;3.40;;;;;;;9.92;92.22;101330.94;4986369;28;20207;-82
2023/05/02 07:14:28;;;;;;;6.43;3.47;;;;;;;9.89;91.67;101342.59;4987922;28;20589;-82
2023/05/02 07:16:55;;;;;;;6.20;3.30;;;;;;;9.87;91.57;101344.47;4990970;28;20207;-82
2023/05/02 07:19:21;;;;;;;7.87;3.53;;;;;;;9.89;92.05;101349.72;4990760;28;20722;-82
2023/05/02 07:21:48;;;;;;;6.67;3.60;;;;;;;9.89;91.61;101353.22;4991625;28;20696;-83
2023/05/02 07:24:16;;;;;;;11.37;4.27;;;;;;;9.93;91.71;101353.94;4991687;28;20631;-84
2023/05/02 07:26:43;;;;;;;10.53;3.87;;;;;;;9.90;89.74;101356.75;4980953;28;20208;-82
2023/05/02 07:29:09;;;;;;;11.30;3.97;;;;;;;9.92;90.52;101362.88;4989981;28;20203;-83
2023/05/02 07:31:36;;;;;;;9.07;4.50;;;;;;;9.91;89.55;101366.47;4987710;28;20211;-82
2023/05/02 07:34:02;;;;;;;9.97;3.30;;;;;;;9.92;90.06;101362.88;4987383;28;20220;-81
2023/05/02 07:36:29;;;;;;;13.73;4.73;;;;;;;9.97;89.44;101371.50;4986215;28;20203;-83
2023/05/02 07:38:55;;;;;;;9.73;3.73;;;;;;;10.02;89.22;101375.66;4993997;28;20232;-82
2023/05/02 07:41:24;;;;;;;13.77;4.33;;;;;;;10.07;89.11;101378.94;4989598;28;20211;-82
2023/05/02 07:43:50;;;;;;;9.40;3.50;;;;;;;10.14;89.38;101379.50;4992653;28;20293;-83
2023/05/02 07:46:16;;;;;;;8.10;3.40;;;;;;;10.18;88.65;101382.88;4989005;28;20576;-82
2023/05/02 07:48:43;;;;;;;8.70;3.63;;;;;;;10.18;88.38;101388.19;4990090;28;20235;-83
2023/05/02 07:51:10;;;;;;;8.27;3.43;;;;;;;10.18;87.27;101389.06;4989049;28;20666;-83
2023/05/02 07:53:37;;;;;;;14.73;4.60;;;;;;;10.19;87.24;101393.50;4986746;28;20238;-83
2023/05/02 07:56:05;;;;;;;12.50;3.87;;;;;;;10.21;86.40;101396.06;4984788;28;20243;-82
2023/05/02 07:58:33;;;;;;;10.30;3.73;;;;;;;10.24;85.75;101395.91;4989661;28;20252;-83
2023/05/02 08:00:59;;;;;;;11.20;3.80;;;;;;;10.24;85.21;101403.88;4986801;28;20212;-83
2023/05/02 08:03:26;;;;;;;13.43;4.50;;;;;;;10.24;85.18;101402.09;4986027;28;20203;-82
2023/05/02 08:05:53;;;;;;;10.17;3.50;;;;;;;10.27;84.51;101414.38;4987714;28;20208;-82
2023/05/02 08:08:19;;;;;;;15.40;4.37;;;;;;;10.27;83.79;101412.59;4982320;28;20902;-83
2023/05/02 08:10:46;;;;;;;5.90;3.30;;;;;;;10.20;79.88;101418.31;4983693;28;20574;-83
2023/05/02 08:13:12;;;;;;;11.70;3.73;;;;;;;10.18;80.01;101418.34;4987717;28;20212;-82
2023/05/02 08:15:40;;;;;;;9.33;3.67;;;;;;;10.21;79.85;101428.84;4981777;28;20300;-83
2023/05/02 08:18:08;;;;;;;7.70;3.33;;;;;;;10.22;79.78;101425.25;4981119;28;20247;-82
2023/05/02 08:20:35;;;;;;;8.03;3.70;;;;;;;10.22;78.85;101425.25;4981302;28;20212;-82
2023/05/02 08:23:01;;;;;;;7.83;3.93;;;;;;;10.26;78.16;101440.16;4979410;28;20231;-82
2023/05/02 08:25:29;;;;;;;10.43;3.97;;;;;;;10.31;78.11;101439.94;4986812;28;20210;-82
2023/05/02 08:27:56;;;;;;;9.27;4.10;;;;;;;10.33;77.56;101446.91;4985004;28;20278;-82
2023/05/02 08:30:25;;;;;;;9.60;4.10;;;;;;;10.36;77.73;101452.09;4982999;28;20259;-82
2023/05/02 08:32:52;;;;;;;12.67;4.33;;;;;;;10.39;77.49;101443.91;4982200;28;20226;-82
2023/05/02 08:35:19;;;;;;;9.23;4.27;;;;;;;10.44;76.79;101460.53;4985999;28;20211;-83
2023/05/02 08:37:45;;;;;;;10.70;4.53;;;;;;;10.46;76.30;101463.13;4986780;28;20235;-82
2023/05/02 08:40:14;;;;;;;12.77;4.23;;;;;;;10.47;75.87;101474.63;4987052;28;20235;-82
2023/05/02 08:42:42;;;;;;;8.07;3.53;;;;;;;10.43;74.59;101473.91;4990168;28;20591;-82
2023/05/02 08:45:12;;;;;;;7.90;4.23;;;;;;;10.40;74.30;101474.06;4988613;28;20217;-82
2023/05/02 08:47:40;;;;;;;12.03;3.87;;;;;;;10.39;74.08;101475.88;4986190;28;20893;-82
2023/05/02 08:50:09;;;;;;;10.83;4.00;;;;;;;10.40;73.62;101479.41;4988037;28;20210;-81
2023/05/02 08:52:36;;;;;;;10.30;4.03;;;;;;;10.39;73.50;101483.84;4983851;28;20204;-82
2023/05/02 08:55:03;;;;;;;10.03;3.40;;;;;;;10.38;73.18;101492.81;4989806;28;20250;-83
2023/05/02 08:57:30;;;;;;;12.40;3.63;;;;;;;10.41;72.73;101505.09;4988679;28;20343;-81
2023/05/02 08:59:57;;;;;;;10.23;3.67;;;;;;;10.39;72.53;101497.16;4983941;28;20623;-83
2023/05/02 09:02:38;;;;;;;7.73;3.67;;;;;;;10.38;72.07;101502.59;4993941;28;20220;-82
2023/05/02 09:05:11;;;;;;;8.67;3.27;;;;;;;10.36;71.87;101507.13;4988066;28;20216;-82
2023/05/02 09:07:46;;;;;;;7.53;3.00;;;;;;;10.37;71.75;101512.38;4987535;28;20231;-81
2023/05/02 09:10:13;;;;;;;9.80;3.20;;;;;;;10.40;71.08;101517.53;4988096;28;20242;-82
2023/05/02 09:12:40;;;;;;;9.87;3.50;;;;;;;10.40;71.48;101520.19;4983211;28;20208;-83
2023/05/02 09:15:10;;;;;;;5.17;2.70;;;;;;;10.41;70.88;101521.94;4982809;28;20223;-82
2023/05/02 09:17:45;;;;;;;6.77;2.47;;;;;;;10.41;70.49;101534.38;4988580;28;20576;-83
2023/05/02 09:20:14;;;;;;;6.80;2.60;;;;;;;10.38;70.31;101530.09;4987579;28;20220;-83
2023/05/02 09:22:48;;;;;;;7.53;3.13;;;;;;;10.36;69.69;101539.09;4990016;28;20211;-83
2023/05/02 09:25:15;;;;;;;9.37;3.40;;;;;;;10.31;69.47;101536.63;4988634;28;20254;-83
2023/05/02 09:27:52;;;;;;;7.13;2.50;;;;;;;10.32;69.33;101546.34;4989704;28;20232;-83
2023/05/02 09:30:20;;;;;;;7.17;3.23;;;;;;;10.34;70.10;101540.97;4985410;28;20203;-83
2023/05/02 09:32:49;;;;;;;7.63;3.13;;;;;;;10.38;70.12;101556.72;4982779;28;20235;-82
2023/05/02 09:35:22;;;;;;;7.30;3.07;;;;;;;10.43;69.59;101553.81;4992959;28;20618;-82
2023/05/02 09:37:52;;;;;;;6.97;2.77;;;;;;;10.47;69.54;101559.88;4986066;28;20232;-82
2023/05/02 09:40:19;;;;;;;8.43;3.17;;;;;;;10.48;69.34;101564.25;4982367;28;20753;-82
2023/05/02 09:42:46;;;;;;;7.33;2.60;;;;;;;10.47;69.13;101560.72;4987087;28;20693;-83
2023/05/02 09:45:23;;;;;;;6.33;2.93;;;;;;;10.46;68.70;101569.66;4980404;28;20204;-82
2023/05/02 09:47:50;;;;;;;8.03;3.73;;;;;;;10.40;67.88;101570.81;4981209;28;20924;-83
2023/05/02 09:50:35;;;;;;;4.87;3.37;;;;;;;10.36;67.96;101581.69;4979817;28;20204;-83
2023/05/02 09:53:03;;;;;;;9.00;3.33;;;;;;;10.33;67.75;101576.50;4979344;28;20203;-83
2023/05/02 09:55:30;;;;;;;7.93;3.63;;;;;;;10.30;67.44;101577.50;4986672;28;20211;-85
2023/05/02 10:01:20;;;;;;;10.83;4.50;;;;;;;10.26;68.12;101597.22;4931643;29;20234;-85
2023/05/02 10:03:48;;;;;;;9.50;3.97;;;;;;;10.27;67.69;101595.44;4936575;28;20207;-86
2023/05/02 10:06:16;;;;;;;6.97;3.70;;;;;;;10.26;67.35;101599.88;4991002;28;20211;-86
2023/05/02 10:08:45;;;;;;;8.10;3.37;;;;;;;10.27;67.44;101596.28;4990503;28;20352;-85
2023/05/02 10:11:12;;;;;;;5.70;3.10;;;;;;;10.28;67.26;101605.13;4990447;28;20662;-85
2023/05/02 10:13:41;;;;;;;3.90;3.03;;;;;;;10.27;66.97;101609.59;4994452;28;20211;-84
2023/05/02 10:16:11;;;;;;;8.23;3.20;;;;;;;10.26;66.77;101605.22;4991768;28;20200;-86
2023/05/02 10:18:42;;;;;;;8.73;3.50;;;;;;;10.28;66.56;101607.81;4991143;28;20239;-85
2023/05/02 10:21:11;;;;;;;9.67;3.63;;;;;;;10.29;66.80;101613.06;4981655;28;20635;-85
2023/05/02 10:23:42;;;;;;;7.67;3.77;;;;;;;10.29;66.39;101621.03;4979952;28;20254;-86
2023/05/02 10:26:11;;;;;;;5.90;4.07;;;;;;;10.29;66.14;101621.03;4992723;28;20203;-84
2023/05/02 10:28:46;;;;;;;8.20;3.63;;;;;;;10.31;65.90;101620.97;4981535;28;20588;-84
2023/05/02 10:31:18;;;;;;;5.23;2.67;;;;;;;10.34;66.24;101628.81;4992639;28;20224;-85
2023/05/02 10:33:46;;;;;;;6.37;3.10;;;;;;;10.34;65.39;101620.84;4983937;28;20199;-86
2023/05/02 10:36:21;;;;;;;8.07;3.13;;;;;;;10.35;65.22;101631.41;4988680;28;20210;-86
2023/05/02 10:38:52;;;;;;;10.07;3.20;;;;;;;10.38;65.04;101628.63;4988527;28;20221;-85
2023/05/02 10:41:22;;;;;;;5.80;3.37;;;;;;;10.41;64.79;101633.78;4983688;28;20200;-85
2023/05/02 10:43:49;;;;;;;4.97;2.93;;;;;;;10.47;64.74;101629.09;4988879;28;20705;-85
2023/05/02 10:46:33;;;;;;;9.60;4.27;;;;;;;10.50;65.13;101632.50;4986869;28;20286;-85
2023/05/02 10:49:04;;;;;;;9.17;3.70;;;;;;;10.51;64.55;101633.34;4982865;28;20227;-85
2023/05/02 10:51:32;;;;;;;9.67;3.50;;;;;;;10.51;63.71;101638.69;4992515;28;20231;-85
2023/05/02 10:54:23;;;;;;;4.50;2.87;;;;;;;10.53;63.83;101628.81;4992067;28;20211;-85
2023/05/02 10:57:07;;;;;;;6.17;2.80;;;;;;;10.57;63.82;101625.09;4994078;28;20214;-85
2023/05/02 10:59:35;;;;;;;6.37;2.40;;;;;;;10.64;63.69;101630.03;4995408;28;20226;-85
2023/05/02 11:02:02;;;;;;;8.40;2.80;;;;;;;10.69;63.50;101628.03;4998210;28;20211;-85
2023/05/02 11:05:00;;;;;;;8.00;3.00;;;;;;;10.71;63.25;101627.94;4995949;28;20704;-84
2023/05/02 11:07:27;;;;;;;3.77;2.47;;;;;;;10.80;62.82;101635.47;4995518;28;20231;-84
2023/05/02 11:10:25;;;;;;;7.83;2.70;;;;;;;10.86;62.37;101629.84;4993088;28;20211;-84
2023/05/02 11:12:52;;;;;;;5.17;2.40;;;;;;;10.90;61.80;101636.78;4990115;28;20204;-85
2023/05/02 11:15:52;;;;;;;8.30;3.50;;;;;;;10.96;61.71;101633.78;4995839;28;20217;-85
2023/05/02 11:18:18;;;;;;;8.47;3.30;;;;;;;11.03;61.51;101629.03;4997395;28;20721;-84
2023/05/02 11:20:45;;;;;;;3.33;2.63;;;;;;;11.09;61.21;101634.06;4996292;28;20322;-85
2023/05/02 11:23:24;;;;;;;6.37;3.00;;;;;;;11.18;60.72;101633.59;4996072;28;20214;-85
2023/05/02 11:25:54;;;;;;;7.03;3.40;;;;;;;11.22;60.24;101637.84;4996425;28;20194;-85
2023/05/02 11:28:41;;;;;;;6.53;3.20;;;;;;;11.26;59.93;101636.75;4995912;28;20721;-84